sensor_id;sensor_type;location;lat;lon;timestamp;P1;durP1;ratioP1;P2;durP2;ratioP2
24787;SDS011;12883;52.662;5.196;2023-01-29T00:01:53;5.50;;;5.50;;
24787;SDS011;12883;52.662;5.196;2023-01-29T00:04:19;4.90;;;4.90;;
24787;SDS011;12883;52.662;5.196;2023-01-29T00:06:45;5.13;;;5.13;;
24787;SDS011;12883;52.662;5.196;2023-01-29T00:09:11;5.90;;;5.90;;
24787;SDS011;12883;52.662;5.196;2023-01-29T00:11:37;6.47;;;6.47;;
24787;SDS011;12883;52.662;5.196;2023-01-29T00:14:03;5.83;;;5.83;;
24787;SDS011;12883;52.662;5.196;2023-01-29T00:16:29;5.73;;;5.73;;
24787;SDS011;12883;52.662;5.196;2023-01-29T00:18:54;6.30;;;6.30;;
24787;SDS011;12883;52.662;5.196;2023-01-29T00:21:20;6.43;;;6.43;;
24787;SDS011;12883;52.662;5.196;2023-01-29T00:23:46;5.80;;;5.80;;
24787;SDS011;12883;52.662;5.196;2023-01-29T00:26:12;6.53;;;6.53;;
24787;SDS011;12883;52.662;5.196;2023-01-29T00:28:38;6.47;;;6.47;;
24787;SDS011;12883;52.662;5.196;2023-01-29T00:31:10;7.40;;;7.40;;
24787;SDS011;12883;52.662;5.196;2023-01-29T00:33:37;7.07;;;7.07;;
24787;SDS011;12883;52.662;5.196;2023-01-29T00:36:04;7.50;;;7.50;;
24787;SDS011;12883;52.662;5.196;2023-01-29T00:38:30;7.23;;;7.23;;
24787;SDS011;12883;52.662;5.196;2023-01-29T00:40:57;7.37;;;7.37;;
24787;SDS011;12883;52.662;5.196;2023-01-29T00:43:41;7.07;;;7.07;;
24787;SDS011;12883;52.662;5.196;2023-01-29T00:46:25;7.37;;;7.37;;
24787;SDS011;12883;52.662;5.196;2023-01-29T00:48:50;7.43;;;7.43;;
24787;SDS011;12883;52.662;5.196;2023-01-29T00:51:16;7.57;;;7.57;;
24787;SDS011;12883;52.662;5.196;2023-01-29T00:53:41;7.37;;;7.37;;
24787;SDS011;12883;52.662;5.196;2023-01-29T00:56:06;7.90;;;7.90;;
24787;SDS011;12883;52.662;5.196;2023-01-29T00:58:32;8.07;;;8.07;;
24787;SDS011;12883;52.662;5.196;2023-01-29T01:01:00;8.07;;;8.07;;
24787;SDS011;12883;52.662;5.196;2023-01-29T01:03:27;7.43;;;7.43;;
24787;SDS011;12883;52.662;5.196;2023-01-29T01:06:06;7.37;;;7.37;;
24787;SDS011;12883;52.662;5.196;2023-01-29T01:08:33;8.30;;;8.30;;
24787;SDS011;12883;52.662;5.196;2023-01-29T01:11:17;8.70;;;8.70;;
24787;SDS011;12883;52.662;5.196;2023-01-29T01:13:43;8.60;;;8.60;;
24787;SDS011;12883;52.662;5.196;2023-01-29T01:16:09;8.77;;;8.77;;
24787;SDS011;12883;52.662;5.196;2023-01-29T01:18:35;8.97;;;8.97;;
24787;SDS011;12883;52.662;5.196;2023-01-29T01:21:02;9.00;;;9.00;;
24787;SDS011;12883;52.662;5.196;2023-01-29T01:23:27;8.07;;;8.07;;
24787;SDS011;12883;52.662;5.196;2023-01-29T01:25:53;8.50;;;8.50;;
24787;SDS011;12883;52.662;5.196;2023-01-29T01:28:19;8.27;;;8.27;;
24787;SDS011;12883;52.662;5.196;2023-01-29T01:30:44;8.43;;;8.43;;
24787;SDS011;12883;52.662;5.196;2023-01-29T01:33:09;8.27;;;8.27;;
24787;SDS011;12883;52.662;5.196;2023-01-29T01:35:35;8.47;;;8.47;;
24787;SDS011;12883;52.662;5.196;2023-01-29T01:38:02;8.93;;;8.93;;
24787;SDS011;12883;52.662;5.196;2023-01-29T01:40:28;8.27;;;8.27;;
24787;SDS011;12883;52.662;5.196;2023-01-29T01:42:55;8.30;;;8.30;;
24787;SDS011;12883;52.662;5.196;2023-01-29T01:48:11;7.97;;;7.97;;
24787;SDS011;12883;52.662;5.196;2023-01-29T01:50:59;7.93;;;7.93;;
24787;SDS011;12883;52.662;5.196;2023-01-29T01:53:30;9.00;;;9.00;;
24787;SDS011;12883;52.662;5.196;2023-01-29T01:56:26;8.87;;;8.87;;
24787;SDS011;12883;52.662;5.196;2023-01-29T01:59:02;7.60;;;7.60;;
24787;SDS011;12883;52.662;5.196;2023-01-29T02:01:31;8.27;;;8.27;;
24787;SDS011;12883;52.662;5.196;2023-01-29T02:04:43;8.90;;;8.90;;
24787;SDS011;12883;52.662;5.196;2023-01-29T02:07:05;9.03;;;9.03;;
24787;SDS011;12883;52.662;5.196;2023-01-29T02:09:52;8.87;;;8.87;;
24787;SDS011;12883;52.662;5.196;2023-01-29T02:12:27;8.90;;;8.90;;
24787;SDS011;12883;52.662;5.196;2023-01-29T02:14:55;9.03;;;9.03;;
24787;SDS011;12883;52.662;5.196;2023-01-29T02:17:21;8.80;;;8.80;;
24787;SDS011;12883;52.662;5.196;2023-01-29T02:19:52;9.03;;;9.03;;
24787;SDS011;12883;52.662;5.196;2023-01-29T02:34:05;9.20;;;9.20;;
24787;SDS011;12883;52.662;5.196;2023-01-29T02:39:41;11.17;;;11.17;;
24787;SDS011;12883;52.662;5.196;2023-01-29T02:42:26;11.17;;;11.17;;
24787;SDS011;12883;52.662;5.196;2023-01-29T02:45:00;11.43;;;11.43;;
24787;SDS011;12883;52.662;5.196;2023-01-29T02:50:06;11.43;;;11.43;;
24787;SDS011;12883;52.662;5.196;2023-01-29T02:55:16;10.83;;;10.83;;
24787;SDS011;12883;52.662;5.196;2023-01-29T02:57:47;11.43;;;11.43;;
24787;SDS011;12883;52.662;5.196;2023-01-29T03:00:20;12.00;;;12.00;;
24787;SDS011;12883;52.662;5.196;2023-01-29T03:03:03;11.03;;;11.03;;
24787;SDS011;12883;52.662;5.196;2023-01-29T03:05:48;11.53;;;11.53;;
24787;SDS011;12883;52.662;5.196;2023-01-29T03:08:23;11.40;;;11.40;;
24787;SDS011;12883;52.662;5.196;2023-01-29T03:11:01;12.30;;;12.30;;
24787;SDS011;12883;52.662;5.196;2023-01-29T03:13:31;11.73;;;11.73;;
24787;SDS011;12883;52.662;5.196;2023-01-29T03:16:10;12.30;;;12.30;;
24787;SDS011;12883;52.662;5.196;2023-01-29T03:18:43;13.20;;;13.20;;
24787;SDS011;12883;52.662;5.196;2023-01-29T03:21:19;12.73;;;12.73;;
24787;SDS011;12883;52.662;5.196;2023-01-29T03:24:08;12.47;;;12.47;;
24787;SDS011;12883;52.662;5.196;2023-01-29T03:26:54;12.13;;;12.13;;
24787;SDS011;12883;52.662;5.196;2023-01-29T03:29:40;12.60;;;12.60;;
24787;SDS011;12883;52.662;5.196;2023-01-29T03:32:26;13.20;;;13.20;;
24787;SDS011;12883;52.662;5.196;2023-01-29T03:34:56;12.97;;;12.97;;
24787;SDS011;12883;52.662;5.196;2023-01-29T03:37:34;13.90;;;13.90;;
24787;SDS011;12883;52.662;5.196;2023-01-29T03:40:04;13.10;;;13.10;;
24787;SDS011;12883;52.662;5.196;2023-01-29T03:48:25;13.57;;;13.57;;
24787;SDS011;12883;52.662;5.196;2023-01-29T03:56:32;14.40;;;14.40;;
24787;SDS011;12883;52.662;5.196;2023-01-29T03:59:21;15.50;;;15.50;;
24787;SDS011;12883;52.662;5.196;2023-01-29T04:01:58;16.20;;;16.10;;
24787;SDS011;12883;52.662;5.196;2023-01-29T04:04:28;16.63;;;16.53;;
24787;SDS011;12883;52.662;5.196;2023-01-29T04:06:56;19.17;;;19.07;;
24787;SDS011;12883;52.662;5.196;2023-01-29T04:09:29;19.17;;;19.07;;
24787;SDS011;12883;52.662;5.196;2023-01-29T04:12:06;19.63;;;19.53;;
24787;SDS011;12883;52.662;5.196;2023-01-29T04:14:33;20.10;;;20.00;;
24787;SDS011;12883;52.662;5.196;2023-01-29T04:17:01;19.03;;;18.93;;
24787;SDS011;12883;52.662;5.196;2023-01-29T04:19:33;19.27;;;19.17;;
24787;SDS011;12883;52.662;5.196;2023-01-29T04:22:04;18.53;;;18.43;;
24787;SDS011;12883;52.662;5.196;2023-01-29T04:24:31;18.53;;;18.43;;
24787;SDS011;12883;52.662;5.196;2023-01-29T04:32:28;19.03;;;18.93;;
24787;SDS011;12883;52.662;5.196;2023-01-29T04:41:25;19.47;;;19.37;;
24787;SDS011;12883;52.662;5.196;2023-01-29T04:51:57;20.27;;;20.17;;
24787;SDS011;12883;52.662;5.196;2023-01-29T04:57:34;20.03;;;19.93;;
24787;SDS011;12883;52.662;5.196;2023-01-29T05:02:37;21.17;;;21.07;;
24787;SDS011;12883;52.662;5.196;2023-01-29T05:05:04;21.17;;;21.07;;
24787;SDS011;12883;52.662;5.196;2023-01-29T05:07:31;21.63;;;21.53;;
24787;SDS011;12883;52.662;5.196;2023-01-29T05:09:59;20.30;;;20.20;;
24787;SDS011;12883;52.662;5.196;2023-01-29T05:12:26;21.70;;;21.60;;
24787;SDS011;12883;52.662;5.196;2023-01-29T05:14:53;20.23;;;20.13;;
24787;SDS011;12883;52.662;5.196;2023-01-29T05:17:22;20.43;;;20.33;;
24787;SDS011;12883;52.662;5.196;2023-01-29T05:19:48;21.73;;;21.63;;
24787;SDS011;12883;52.662;5.196;2023-01-29T05:22:15;20.57;;;20.47;;
24787;SDS011;12883;52.662;5.196;2023-01-29T05:24:42;20.93;;;20.83;;
24787;SDS011;12883;52.662;5.196;2023-01-29T05:27:10;21.97;;;21.87;;
24787;SDS011;12883;52.662;5.196;2023-01-29T05:30:01;21.17;;;21.07;;
24787;SDS011;12883;52.662;5.196;2023-01-29T05:32:26;22.73;;;22.63;;
24787;SDS011;12883;52.662;5.196;2023-01-29T05:34:51;23.77;;;23.67;;
24787;SDS011;12883;52.662;5.196;2023-01-29T05:37:17;21.70;;;21.60;;
24787;SDS011;12883;52.662;5.196;2023-01-29T05:39:42;23.23;;;23.13;;
24787;SDS011;12883;52.662;5.196;2023-01-29T05:42:07;21.90;;;21.80;;
24787;SDS011;12883;52.662;5.196;2023-01-29T05:44:33;23.80;;;23.70;;
24787;SDS011;12883;52.662;5.196;2023-01-29T05:46:58;23.73;;;23.63;;
24787;SDS011;12883;52.662;5.196;2023-01-29T05:49:26;23.40;;;23.30;;
24787;SDS011;12883;52.662;5.196;2023-01-29T05:51:51;23.07;;;22.97;;
24787;SDS011;12883;52.662;5.196;2023-01-29T05:54:17;23.87;;;23.77;;
24787;SDS011;12883;52.662;5.196;2023-01-29T05:56:42;22.77;;;22.67;;
24787;SDS011;12883;52.662;5.196;2023-01-29T05:59:07;24.30;;;24.20;;
24787;SDS011;12883;52.662;5.196;2023-01-29T06:01:33;24.27;;;24.17;;
24787;SDS011;12883;52.662;5.196;2023-01-29T06:03:58;23.40;;;23.30;;
24787;SDS011;12883;52.662;5.196;2023-01-29T06:06:23;22.30;;;22.20;;
24787;SDS011;12883;52.662;5.196;2023-01-29T06:08:49;24.30;;;24.20;;
24787;SDS011;12883;52.662;5.196;2023-01-29T06:11:15;23.97;;;23.87;;
24787;SDS011;12883;52.662;5.196;2023-01-29T06:13:42;24.27;;;24.17;;
24787;SDS011;12883;52.662;5.196;2023-01-29T06:16:09;22.43;;;22.33;;
24787;SDS011;12883;52.662;5.196;2023-01-29T06:18:36;25.17;;;25.07;;
24787;SDS011;12883;52.662;5.196;2023-01-29T06:21:03;24.60;;;24.50;;
24787;SDS011;12883;52.662;5.196;2023-01-29T06:23:30;24.43;;;24.33;;
24787;SDS011;12883;52.662;5.196;2023-01-29T06:26:06;24.37;;;24.27;;
24787;SDS011;12883;52.662;5.196;2023-01-29T06:28:34;24.17;;;24.07;;
24787;SDS011;12883;52.662;5.196;2023-01-29T06:31:00;24.90;;;24.80;;
24787;SDS011;12883;52.662;5.196;2023-01-29T06:33:27;24.97;;;24.87;;
24787;SDS011;12883;52.662;5.196;2023-01-29T06:35:56;26.27;;;26.17;;
24787;SDS011;12883;52.662;5.196;2023-01-29T06:38:26;25.83;;;25.73;;
24787;SDS011;12883;52.662;5.196;2023-01-29T06:40:52;25.10;;;25.00;;
24787;SDS011;12883;52.662;5.196;2023-01-29T06:43:17;25.63;;;25.53;;
24787;SDS011;12883;52.662;5.196;2023-01-29T06:46:01;23.80;;;23.70;;
24787;SDS011;12883;52.662;5.196;2023-01-29T06:48:26;25.53;;;25.43;;
24787;SDS011;12883;52.662;5.196;2023-01-29T06:50:52;26.97;;;26.87;;
24787;SDS011;12883;52.662;5.196;2023-01-29T06:53:19;26.60;;;26.50;;
24787;SDS011;12883;52.662;5.196;2023-01-29T06:55:51;25.23;;;25.13;;
24787;SDS011;12883;52.662;5.196;2023-01-29T06:58:17;27.07;;;26.97;;
24787;SDS011;12883;52.662;5.196;2023-01-29T07:00:42;26.17;;;26.07;;
24787;SDS011;12883;52.662;5.196;2023-01-29T07:03:08;26.43;;;26.33;;
24787;SDS011;12883;52.662;5.196;2023-01-29T07:05:34;27.27;;;27.17;;
24787;SDS011;12883;52.662;5.196;2023-01-29T07:08:00;26.90;;;26.80;;
24787;SDS011;12883;52.662;5.196;2023-01-29T07:10:25;26.97;;;26.87;;
24787;SDS011;12883;52.662;5.196;2023-01-29T07:12:50;27.27;;;27.17;;
24787;SDS011;12883;52.662;5.196;2023-01-29T07:15:16;29.00;;;28.83;;
24787;SDS011;12883;52.662;5.196;2023-01-29T07:17:54;26.83;;;26.73;;
24787;SDS011;12883;52.662;5.196;2023-01-29T07:20:35;28.07;;;27.97;;
24787;SDS011;12883;52.662;5.196;2023-01-29T07:23:02;27.37;;;27.27;;
24787;SDS011;12883;52.662;5.196;2023-01-29T07:25:27;30.53;;;30.33;;
24787;SDS011;12883;52.662;5.196;2023-01-29T07:27:54;30.60;;;30.40;;
24787;SDS011;12883;52.662;5.196;2023-01-29T07:30:20;31.93;;;31.73;;
24787;SDS011;12883;52.662;5.196;2023-01-29T07:32:46;31.30;;;31.13;;
24787;SDS011;12883;52.662;5.196;2023-01-29T07:35:11;31.37;;;31.17;;
24787;SDS011;12883;52.662;5.196;2023-01-29T07:37:36;31.17;;;30.97;;
24787;SDS011;12883;52.662;5.196;2023-01-29T07:40:02;32.43;;;32.23;;
24787;SDS011;12883;52.662;5.196;2023-01-29T07:42:29;32.27;;;32.07;;
24787;SDS011;12883;52.662;5.196;2023-01-29T07:44:55;33.23;;;33.03;;
24787;SDS011;12883;52.662;5.196;2023-01-29T07:47:20;32.10;;;31.90;;
24787;SDS011;12883;52.662;5.196;2023-01-29T07:49:45;32.90;;;32.70;;
24787;SDS011;12883;52.662;5.196;2023-01-29T07:52:10;33.17;;;32.97;;
24787;SDS011;12883;52.662;5.196;2023-01-29T07:54:36;33.03;;;32.83;;
24787;SDS011;12883;52.662;5.196;2023-01-29T07:57:01;33.03;;;32.83;;
24787;SDS011;12883;52.662;5.196;2023-01-29T07:59:27;33.60;;;33.40;;
24787;SDS011;12883;52.662;5.196;2023-01-29T08:01:52;35.53;;;35.33;;
24787;SDS011;12883;52.662;5.196;2023-01-29T08:04:17;34.30;;;34.10;;
24787;SDS011;12883;52.662;5.196;2023-01-29T08:06:43;34.90;;;34.70;;
24787;SDS011;12883;52.662;5.196;2023-01-29T08:09:08;35.27;;;35.07;;
24787;SDS011;12883;52.662;5.196;2023-01-29T08:11:34;34.80;;;34.60;;
24787;SDS011;12883;52.662;5.196;2023-01-29T08:13:59;36.37;;;36.17;;
24787;SDS011;12883;52.662;5.196;2023-01-29T08:16:26;35.03;;;34.83;;
24787;SDS011;12883;52.662;5.196;2023-01-29T08:18:51;34.20;;;34.00;;
24787;SDS011;12883;52.662;5.196;2023-01-29T08:21:17;34.87;;;34.67;;
24787;SDS011;12883;52.662;5.196;2023-01-29T08:23:42;35.47;;;35.27;;
24787;SDS011;12883;52.662;5.196;2023-01-29T08:26:08;35.40;;;35.20;;
24787;SDS011;12883;52.662;5.196;2023-01-29T08:28:33;37.30;;;37.10;;
24787;SDS011;12883;52.662;5.196;2023-01-29T08:31:00;35.10;;;34.90;;
24787;SDS011;12883;52.662;5.196;2023-01-29T08:33:25;34.63;;;34.43;;
24787;SDS011;12883;52.662;5.196;2023-01-29T08:35:53;34.10;;;33.90;;
24787;SDS011;12883;52.662;5.196;2023-01-29T08:38:18;35.27;;;35.07;;
24787;SDS011;12883;52.662;5.196;2023-01-29T08:40:43;34.63;;;34.43;;
24787;SDS011;12883;52.662;5.196;2023-01-29T08:43:09;36.47;;;36.27;;
24787;SDS011;12883;52.662;5.196;2023-01-29T08:45:37;35.20;;;35.00;;
24787;SDS011;12883;52.662;5.196;2023-01-29T08:48:05;35.10;;;34.90;;
24787;SDS011;12883;52.662;5.196;2023-01-29T08:50:31;35.77;;;35.57;;
24787;SDS011;12883;52.662;5.196;2023-01-29T08:52:59;37.27;;;37.07;;
24787;SDS011;12883;52.662;5.196;2023-01-29T08:55:26;38.83;;;38.63;;
24787;SDS011;12883;52.662;5.196;2023-01-29T08:57:52;38.80;;;38.57;;
24787;SDS011;12883;52.662;5.196;2023-01-29T09:00:18;38.97;;;38.77;;
24787;SDS011;12883;52.662;5.196;2023-01-29T09:02:43;39.17;;;38.97;;
24787;SDS011;12883;52.662;5.196;2023-01-29T09:05:09;39.37;;;39.17;;
24787;SDS011;12883;52.662;5.196;2023-01-29T09:07:34;41.30;;;41.07;;
24787;SDS011;12883;52.662;5.196;2023-01-29T09:10:00;40.00;;;39.80;;
24787;SDS011;12883;52.662;5.196;2023-01-29T09:12:26;39.40;;;39.20;;
24787;SDS011;12883;52.662;5.196;2023-01-29T09:14:52;38.93;;;38.73;;
24787;SDS011;12883;52.662;5.196;2023-01-29T09:17:17;41.63;;;41.43;;
24787;SDS011;12883;52.662;5.196;2023-01-29T09:19:42;42.73;;;42.53;;
24787;SDS011;12883;52.662;5.196;2023-01-29T09:22:08;40.80;;;40.60;;
24787;SDS011;12883;52.662;5.196;2023-01-29T09:24:33;40.43;;;40.23;;
24787;SDS011;12883;52.662;5.196;2023-01-29T09:26:59;41.37;;;41.17;;
24787;SDS011;12883;52.662;5.196;2023-01-29T09:29:25;41.60;;;41.40;;
24787;SDS011;12883;52.662;5.196;2023-01-29T09:31:50;40.30;;;40.10;;
24787;SDS011;12883;52.662;5.196;2023-01-29T09:34:15;39.50;;;39.30;;
24787;SDS011;12883;52.662;5.196;2023-01-29T09:36:41;39.33;;;39.13;;
24787;SDS011;12883;52.662;5.196;2023-01-29T09:39:06;38.70;;;38.50;;
24787;SDS011;12883;52.662;5.196;2023-01-29T09:41:38;38.63;;;38.43;;
24787;SDS011;12883;52.662;5.196;2023-01-29T09:47:18;36.77;;;36.57;;
24787;SDS011;12883;52.662;5.196;2023-01-29T09:49:50;36.57;;;36.37;;
24787;SDS011;12883;52.662;5.196;2023-01-29T09:52:20;36.70;;;36.50;;
24787;SDS011;12883;52.662;5.196;2023-01-29T09:57:30;35.67;;;35.47;;
24787;SDS011;12883;52.662;5.196;2023-01-29T10:00:03;36.53;;;36.33;;
24787;SDS011;12883;52.662;5.196;2023-01-29T10:13:18;29.70;;;29.60;;
24787;SDS011;12883;52.662;5.196;2023-01-29T10:18:32;28.33;;;28.23;;
24787;SDS011;12883;52.662;5.196;2023-01-29T10:24:00;27.40;;;27.30;;
24787;SDS011;12883;52.662;5.196;2023-01-29T10:26:45;28.57;;;28.40;;
24787;SDS011;12883;52.662;5.196;2023-01-29T10:29:13;29.57;;;29.40;;
24787;SDS011;12883;52.662;5.196;2023-01-29T10:31:41;28.67;;;28.47;;
24787;SDS011;12883;52.662;5.196;2023-01-29T10:34:12;30.77;;;30.57;;
24787;SDS011;12883;52.662;5.196;2023-01-29T10:36:46;28.07;;;27.97;;
24787;SDS011;12883;52.662;5.196;2023-01-29T10:55:55;24.83;;;24.73;;
24787;SDS011;12883;52.662;5.196;2023-01-29T10:58:15;25.63;;;25.53;;
24787;SDS011;12883;52.662;5.196;2023-01-29T11:00:51;23.93;;;23.83;;
24787;SDS011;12883;52.662;5.196;2023-01-29T11:03:23;25.80;;;25.70;;
24787;SDS011;12883;52.662;5.196;2023-01-29T11:08:51;24.43;;;24.33;;
24787;SDS011;12883;52.662;5.196;2023-01-29T11:11:21;24.80;;;24.70;;
24787;SDS011;12883;52.662;5.196;2023-01-29T11:13:58;23.87;;;23.77;;
24787;SDS011;12883;52.662;5.196;2023-01-29T11:16:31;23.17;;;23.07;;
24787;SDS011;12883;52.662;5.196;2023-01-29T11:19:05;23.27;;;23.17;;
24787;SDS011;12883;52.662;5.196;2023-01-29T11:21:30;24.27;;;24.17;;
24787;SDS011;12883;52.662;5.196;2023-01-29T11:26:32;24.93;;;24.83;;
24787;SDS011;12883;52.662;5.196;2023-01-29T11:29:00;28.07;;;27.97;;
24787;SDS011;12883;52.662;5.196;2023-01-29T11:31:26;28.50;;;28.30;;
24787;SDS011;12883;52.662;5.196;2023-01-29T11:34:02;30.87;;;30.67;;
24787;SDS011;12883;52.662;5.196;2023-01-29T11:39:09;30.27;;;30.07;;
24787;SDS011;12883;52.662;5.196;2023-01-29T11:41:42;32.83;;;32.63;;
24787;SDS011;12883;52.662;5.196;2023-01-29T11:44:19;33.93;;;33.73;;
24787;SDS011;12883;52.662;5.196;2023-01-29T11:46:46;33.93;;;33.73;;
24787;SDS011;12883;52.662;5.196;2023-01-29T11:52:12;35.77;;;35.57;;
24787;SDS011;12883;52.662;5.196;2023-01-29T11:54:45;36.43;;;36.23;;
24787;SDS011;12883;52.662;5.196;2023-01-29T11:57:28;35.60;;;35.40;;
24787;SDS011;12883;52.662;5.196;2023-01-29T12:00:02;34.47;;;34.27;;
24787;SDS011;12883;52.662;5.196;2023-01-29T12:05:01;35.67;;;35.47;;
24787;SDS011;12883;52.662;5.196;2023-01-29T12:07:30;36.40;;;36.20;;
24787;SDS011;12883;52.662;5.196;2023-01-29T12:09:56;35.53;;;35.33;;
24787;SDS011;12883;52.662;5.196;2023-01-29T12:18:11;32.73;;;32.53;;
24787;SDS011;12883;52.662;5.196;2023-01-29T12:21:00;32.07;;;31.87;;
24787;SDS011;12883;52.662;5.196;2023-01-29T12:26:13;31.57;;;31.37;;
24787;SDS011;12883;52.662;5.196;2023-01-29T12:29:04;30.83;;;30.63;;
24787;SDS011;12883;52.662;5.196;2023-01-29T12:35:08;19.00;;;18.90;;
24787;SDS011;12883;52.662;5.196;2023-01-29T12:40:50;19.43;;;19.33;;
24787;SDS011;12883;52.662;5.196;2023-01-29T12:43:41;25.83;;;25.73;;
24787;SDS011;12883;52.662;5.196;2023-01-29T12:46:26;23.97;;;23.87;;
24787;SDS011;12883;52.662;5.196;2023-01-29T12:48:55;23.60;;;23.50;;
24787;SDS011;12883;52.662;5.196;2023-01-29T12:51:28;24.03;;;23.93;;
24787;SDS011;12883;52.662;5.196;2023-01-29T12:56:34;21.67;;;21.57;;
24787;SDS011;12883;52.662;5.196;2023-01-29T12:59:14;20.23;;;20.13;;
24787;SDS011;12883;52.662;5.196;2023-01-29T13:01:47;18.97;;;18.87;;
24787;SDS011;12883;52.662;5.196;2023-01-29T13:07:08;15.53;;;15.43;;
24787;SDS011;12883;52.662;5.196;2023-01-29T13:09:40;11.87;;;11.87;;
24787;SDS011;12883;52.662;5.196;2023-01-29T13:12:11;11.80;;;11.80;;
24787;SDS011;12883;52.662;5.196;2023-01-29T13:17:33;28.23;;;28.13;;
24787;SDS011;12883;52.662;5.196;2023-01-29T13:20:12;28.87;;;28.67;;
24787;SDS011;12883;52.662;5.196;2023-01-29T13:22:42;30.80;;;30.60;;
24787;SDS011;12883;52.662;5.196;2023-01-29T13:25:19;30.60;;;30.50;;
24787;SDS011;12883;52.662;5.196;2023-01-29T13:27:45;32.70;;;32.50;;
24787;SDS011;12883;52.662;5.196;2023-01-29T13:30:27;32.73;;;32.53;;
24787;SDS011;12883;52.662;5.196;2023-01-29T13:32:55;32.63;;;32.43;;
24787;SDS011;12883;52.662;5.196;2023-01-29T13:35:36;32.00;;;31.80;;
24787;SDS011;12883;52.662;5.196;2023-01-29T13:41:02;33.77;;;33.57;;
24787;SDS011;12883;52.662;5.196;2023-01-29T13:43:33;33.60;;;33.40;;
24787;SDS011;12883;52.662;5.196;2023-01-29T13:46:05;33.40;;;33.20;;
24787;SDS011;12883;52.662;5.196;2023-01-29T13:48:42;33.47;;;33.27;;
24787;SDS011;12883;52.662;5.196;2023-01-29T13:51:11;33.17;;;32.97;;
24787;SDS011;12883;52.662;5.196;2023-01-29T13:53:50;33.27;;;33.07;;
24787;SDS011;12883;52.662;5.196;2023-01-29T13:56:29;32.30;;;32.10;;
24787;SDS011;12883;52.662;5.196;2023-01-29T13:59:19;31.03;;;30.83;;
24787;SDS011;12883;52.662;5.196;2023-01-29T14:02:17;29.93;;;29.73;;
24787;SDS011;12883;52.662;5.196;2023-01-29T14:04:45;28.27;;;28.07;;
24787;SDS011;12883;52.662;5.196;2023-01-29T14:10:14;18.20;;;18.10;;
24787;SDS011;12883;52.662;5.196;2023-01-29T14:12:42;20.13;;;20.03;;
24787;SDS011;12883;52.662;5.196;2023-01-29T14:15:16;18.40;;;18.30;;
24787;SDS011;12883;52.662;5.196;2023-01-29T14:17:53;19.00;;;18.90;;
24787;SDS011;12883;52.662;5.196;2023-01-29T14:20:22;18.63;;;18.53;;
24787;SDS011;12883;52.662;5.196;2023-01-29T14:23:17;19.00;;;18.90;;
24787;SDS011;12883;52.662;5.196;2023-01-29T14:25:45;18.10;;;18.00;;
24787;SDS011;12883;52.662;5.196;2023-01-29T14:28:15;19.23;;;19.13;;
24787;SDS011;12883;52.662;5.196;2023-01-29T14:30:46;19.33;;;19.23;;
24787;SDS011;12883;52.662;5.196;2023-01-29T14:33:23;20.70;;;20.60;;
24787;SDS011;12883;52.662;5.196;2023-01-29T14:35:52;21.60;;;21.50;;
24787;SDS011;12883;52.662;5.196;2023-01-29T14:38:20;21.30;;;21.20;;
24787;SDS011;12883;52.662;5.196;2023-01-29T14:40:49;21.50;;;21.40;;
24787;SDS011;12883;52.662;5.196;2023-01-29T14:43:15;24.00;;;23.80;;
24787;SDS011;12883;52.662;5.196;2023-01-29T14:45:44;23.97;;;23.87;;
24787;SDS011;12883;52.662;5.196;2023-01-29T14:51:20;28.60;;;28.40;;
24787;SDS011;12883;52.662;5.196;2023-01-29T14:53:52;28.60;;;28.40;;
24787;SDS011;12883;52.662;5.196;2023-01-29T14:56:25;28.20;;;28.00;;
24787;SDS011;12883;52.662;5.196;2023-01-29T14:58:59;28.67;;;28.47;;
24787;SDS011;12883;52.662;5.196;2023-01-29T15:01:46;29.60;;;29.40;;
24787;SDS011;12883;52.662;5.196;2023-01-29T15:04:31;30.10;;;29.90;;
24787;SDS011;12883;52.662;5.196;2023-01-29T15:07:13;29.00;;;28.80;;
24787;SDS011;12883;52.662;5.196;2023-01-29T15:10:10;29.20;;;29.00;;
24787;SDS011;12883;52.662;5.196;2023-01-29T15:18:08;28.80;;;28.60;;
24787;SDS011;12883;52.662;5.196;2023-01-29T15:20:40;30.50;;;30.30;;
24787;SDS011;12883;52.662;5.196;2023-01-29T15:25:52;30.50;;;30.30;;
24787;SDS011;12883;52.662;5.196;2023-01-29T15:28:19;28.10;;;27.90;;
24787;SDS011;12883;52.662;5.196;2023-01-29T15:30:48;28.67;;;28.47;;
24787;SDS011;12883;52.662;5.196;2023-01-29T15:33:18;28.20;;;28.00;;
24787;SDS011;12883;52.662;5.196;2023-01-29T15:35:44;27.50;;;27.30;;
24787;SDS011;12883;52.662;5.196;2023-01-29T15:38:15;25.97;;;25.77;;
24787;SDS011;12883;52.662;5.196;2023-01-29T15:40:55;25.60;;;25.40;;
24787;SDS011;12883;52.662;5.196;2023-01-29T15:43:24;26.73;;;26.53;;
24787;SDS011;12883;52.662;5.196;2023-01-29T15:45:59;26.27;;;26.07;;
24787;SDS011;12883;52.662;5.196;2023-01-29T15:48:31;27.60;;;27.40;;
24787;SDS011;12883;52.662;5.196;2023-01-29T15:51:00;26.60;;;26.40;;
24787;SDS011;12883;52.662;5.196;2023-01-29T15:53:31;26.57;;;26.37;;
24787;SDS011;12883;52.662;5.196;2023-01-29T15:56:00;27.57;;;27.37;;
24787;SDS011;12883;52.662;5.196;2023-01-29T15:58:35;26.77;;;26.57;;
24787;SDS011;12883;52.662;5.196;2023-01-29T16:01:01;25.33;;;25.13;;
24787;SDS011;12883;52.662;5.196;2023-01-29T16:03:29;25.23;;;25.03;;
24787;SDS011;12883;52.662;5.196;2023-01-29T16:05:57;25.27;;;25.07;;
24787;SDS011;12883;52.662;5.196;2023-01-29T16:08:23;25.30;;;25.20;;
24787;SDS011;12883;52.662;5.196;2023-01-29T16:10:52;25.13;;;24.93;;
24787;SDS011;12883;52.662;5.196;2023-01-29T16:13:23;26.23;;;26.03;;
24787;SDS011;12883;52.662;5.196;2023-01-29T16:15:55;24.07;;;23.97;;
24787;SDS011;12883;52.662;5.196;2023-01-29T16:18:29;25.27;;;25.07;;
24787;SDS011;12883;52.662;5.196;2023-01-29T16:21:00;25.53;;;25.33;;
24787;SDS011;12883;52.662;5.196;2023-01-29T16:23:31;25.00;;;24.80;;
24787;SDS011;12883;52.662;5.196;2023-01-29T16:26:05;23.90;;;23.70;;
24787;SDS011;12883;52.662;5.196;2023-01-29T16:28:33;26.10;;;25.90;;
24787;SDS011;12883;52.662;5.196;2023-01-29T16:31:04;25.23;;;25.03;;
24787;SDS011;12883;52.662;5.196;2023-01-29T16:33:34;24.93;;;24.73;;
24787;SDS011;12883;52.662;5.196;2023-01-29T16:36:23;26.23;;;26.03;;
24787;SDS011;12883;52.662;5.196;2023-01-29T16:38:58;26.73;;;26.53;;
24787;SDS011;12883;52.662;5.196;2023-01-29T16:41:27;25.80;;;25.60;;
24787;SDS011;12883;52.662;5.196;2023-01-29T16:43:59;25.27;;;25.07;;
24787;SDS011;12883;52.662;5.196;2023-01-29T16:46:34;24.97;;;24.77;;
24787;SDS011;12883;52.662;5.196;2023-01-29T16:51:52;24.70;;;24.50;;
24787;SDS011;12883;52.662;5.196;2023-01-29T16:54:21;24.97;;;24.77;;
24787;SDS011;12883;52.662;5.196;2023-01-29T16:56:50;23.80;;;23.60;;
24787;SDS011;12883;52.662;5.196;2023-01-29T16:59:25;23.17;;;23.07;;
24787;SDS011;12883;52.662;5.196;2023-01-29T17:01:53;21.87;;;21.67;;
24787;SDS011;12883;52.662;5.196;2023-01-29T17:04:20;24.47;;;24.27;;
24787;SDS011;12883;52.662;5.196;2023-01-29T17:06:52;25.07;;;24.87;;
24787;SDS011;12883;52.662;5.196;2023-01-29T17:09:21;23.37;;;23.17;;
24787;SDS011;12883;52.662;5.196;2023-01-29T17:11:55;20.20;;;20.03;;
24787;SDS011;12883;52.662;5.196;2023-01-29T17:14:23;18.07;;;17.97;;
24787;SDS011;12883;52.662;5.196;2023-01-29T17:16:53;17.73;;;17.63;;
24787;SDS011;12883;52.662;5.196;2023-01-29T17:19:25;18.33;;;18.23;;
24787;SDS011;12883;52.662;5.196;2023-01-29T17:21:50;16.47;;;16.37;;